Time;durP1;ratioP1;P1;durP2;ratioP2;P2;SDS_P1;SDS_P2;PMS_P1;PMS_P2;Temp;Humidity;BMP_temperature;BMP_pressure;BME280_temperature;BME280_humidity;BME280_pressure;Samples;Min_cycle;Max_cycle;Signal;HPM_P1;HPM_P2
2021/01/30 00:03:55;;;;;;;14.15;5.05;;;7.70;99.90;;;;;;6699093;88;20190;-75
2021/01/30 00:13:56;;;;;;;12.30;4.50;;;7.60;99.90;;;;;;6700412;88;20186;-75
2021/01/30 00:23:56;;;;;;;11.35;4.50;;;7.60;99.90;;;;;;6700221;88;20301;-75
2021/01/30 00:33:57;;;;;;;13.60;4.90;;;7.40;99.90;;;;;;6703084;88;20206;-75
2021/01/30 00:43:59;;;;;;;12.37;4.53;;;7.30;99.90;;;;;;6710539;88;20685;-75
2021/01/30 00:53:59;;;;;;;10.80;3.95;;;7.40;99.90;;;;;;6702094;88;20219;-74
2021/01/30 01:04:00;;;;;;;10.93;4.18;;;7.40;99.90;;;;;;6705053;88;20674;-75
2021/01/30 01:14:01;;;;;;;13.73;4.93;;;7.40;99.90;;;;;;6703518;88;20742;-75
2021/01/30 01:24:01;;;;;;;11.73;5.30;;;7.40;99.90;;;;;;6707874;88;20179;-76
2021/01/30 01:34:02;;;;;;;8.43;4.47;;;7.30;99.90;;;;;;6700360;88;20240;-74
2021/01/30 01:44:03;;;;;;;10.68;4.40;;;7.30;99.90;;;;;;6703550;88;20186;-74
2021/01/30 01:54:08;;;;;;;8.55;3.97;;;7.30;99.90;;;;;;6700213;88;20194;-73
2021/01/30 02:04:11;;;;;;;9.40;4.30;;;7.20;99.90;;;;;;6700814;88;20202;-74
2021/01/30 02:14:12;;;;;;;8.88;4.45;;;7.10;99.90;;;;;;6700670;88;20311;-74
2021/01/30 02:24:53;;;;;;;10.35;4.47;;;7.10;99.90;;;;;;6697713;88;20194;-74
2021/01/30 02:35:02;;;;;;;8.18;3.80;;;7.00;99.90;;;;;;6701442;88;20201;-74
2021/01/30 02:45:15;;;;;;;8.77;3.95;;;7.00;99.90;;;;;;6706484;88;21048;-74
2021/01/30 02:55:17;;;;;;;8.27;3.95;;;7.00;99.90;;;;;;6700258;88;20675;-73
2021/01/30 03:05:19;;;;;;;11.65;5.40;;;7.00;99.90;;;;;;6703118;88;20577;-74
2021/01/30 03:15:40;;;;;;;9.48;4.82;;;6.90;99.90;;;;;;6700897;88;20229;-74
2021/01/30 03:25:42;;;;;;;12.23;5.45;;;6.80;99.90;;;;;;6702517;88;20714;-73
2021/01/30 03:35:42;;;;;;;13.20;6.95;;;6.70;99.90;;;;;;6701332;88;20208;-74
2021/01/30 03:45:43;;;;;;;19.15;7.35;;;6.60;99.90;;;;;;6701947;88;20182;-74
2021/01/30 03:55:43;;;;;;;19.33;9.07;;;6.50;99.90;;;;;;6703347;88;20324;-74
2021/01/30 04:05:44;;;;;;;33.53;16.92;;;6.30;99.90;;;;;;6702970;88;20278;-74
2021/01/30 04:15:46;;;;;;;34.13;16.62;;;5.70;99.90;;;;;;6708006;88;20725;-73
2021/01/30 04:25:46;;;;;;;22.95;11.80;;;5.10;99.90;;;;;;6716092;88;20279;-73
2021/01/30 04:35:47;;;;;;;25.67;13.23;;;4.60;99.90;;;;;;6706222;88;20186;-73
2021/01/30 04:46:10;;;;;;;24.05;11.77;;;4.40;99.90;;;;;;6702758;88;20295;-74
2021/01/30 04:56:32;;;;;;;25.62;11.77;;;4.10;99.90;;;;;;6703861;88;20242;-73
2021/01/30 05:06:47;;;;;;;21.60;11.55;;;4.10;99.90;;;;;;6702276;88;20778;-73
2021/01/30 05:17:00;;;;;;;23.77;11.63;;;4.10;99.90;;;;;;6709608;88;20194;-73
2021/01/30 05:27:13;;;;;;;22.45;11.63;;;4.00;99.90;;;;;;6712837;88;20263;-73
2021/01/30 05:37:21;;;;;;;22.37;11.18;;;3.90;99.90;;;;;;6710389;88;20181;-74
2021/01/30 05:47:29;;;;;;;25.62;12.80;;;3.80;99.90;;;;;;6704485;88;20766;-72
2021/01/30 05:57:30;;;;;;;28.70;13.40;;;3.70;99.90;;;;;;6708175;88;20199;-72
2021/01/30 06:07:37;;;;;;;25.48;11.77;;;3.60;99.90;;;;;;6705521;88;20771;-73
2021/01/30 06:17:37;;;;;;;24.17;12.48;;;3.40;99.90;;;;;;6709330;88;20491;-73
2021/01/30 06:27:42;;;;;;;23.15;11.73;;;3.30;99.90;;;;;;6709884;88;20814;-73
2021/01/30 06:37:48;;;;;;;20.98;10.95;;;3.20;99.90;;;;;;6709826;88;20475;-73
2021/01/30 06:47:50;;;;;;;22.30;11.20;;;3.10;99.90;;;;;;6707355;88;20260;-73
2021/01/30 06:58:01;;;;;;;25.27;12.30;;;3.10;99.90;;;;;;6708947;88;20819;-73
2021/01/30 07:08:11;;;;;;;26.73;13.02;;;3.00;99.90;;;;;;6707459;88;20244;-73
2021/01/30 07:18:30;;;;;;;25.30;12.07;;;3.00;99.90;;;;;;6707291;88;20291;-73
2021/01/30 07:28:39;;;;;;;26.15;12.23;;;2.90;99.90;;;;;;6710331;88;20815;-75
2021/01/30 07:38:46;;;;;;;26.27;12.95;;;2.80;99.90;;;;;;6704014;88;20649;-73
2021/01/30 07:48:51;;;;;;;27.87;13.52;;;2.70;99.90;;;;;;6700167;88;20175;-74
2021/01/30 07:59:16;;;;;;;28.73;12.48;;;2.60;99.90;;;;;;6717416;88;20202;-73
2021/01/30 08:09:40;;;;;;;22.98;10.75;;;2.60;99.90;;;;;;6708567;88;20201;-73
2021/01/30 08:19:53;;;;;;;18.42;9.32;;;2.70;99.90;;;;;;6700875;88;20252;-72
2021/01/30 08:30:08;;;;;;;20.15;8.98;;;2.70;99.90;;;;;;6712769;88;20218;-74
2021/01/30 08:40:15;;;;;;;18.45;8.23;;;2.70;99.90;;;;;;6704835;88;20362;-73
2021/01/30 08:50:30;;;;;;;15.40;7.63;;;2.90;99.90;;;;;;6707556;88;20687;-74
2021/01/30 09:00:50;;;;;;;17.87;7.47;;;2.90;99.90;;;;;;6702869;88;20238;-73
2021/01/30 09:11:17;;;;;;;14.63;6.43;;;3.00;99.90;;;;;;6705194;88;20324;-73
2021/01/30 09:21:37;;;;;;;13.93;6.75;;;2.90;99.90;;;;;;6707747;88;20198;-73
2021/01/30 09:31:38;;;;;;;16.55;7.25;;;3.00;99.90;;;;;;6705082;88;20233;-73
2021/01/30 09:41:38;;;;;;;18.40;6.57;;;3.00;99.90;;;;;;6699818;88;20255;-74
2021/01/30 09:51:41;;;;;;;17.35;6.80;;;3.00;99.90;;;;;;6697722;88;20732;-72
2021/01/30 10:01:44;;;;;;;13.15;6.82;;;3.00;99.90;;;;;;6700768;88;20271;-74
2021/01/30 10:11:49;;;;;;;18.62;7.80;;;3.20;99.90;;;;;;6701404;88;20236;-75
2021/01/30 10:21:50;;;;;;;15.10;7.93;;;3.30;99.90;;;;;;6711483;88;20182;-74
2021/01/30 10:32:02;;;;;;;15.75;8.23;;;3.30;99.90;;;;;;6703193;88;20597;-74
2021/01/30 10:42:14;;;;;;;15.57;7.97;;;3.30;99.90;;;;;;6703074;88;20358;-72
2021/01/30 10:52:25;;;;;;;16.23;8.25;;;3.40;99.90;;;;;;6699360;88;20641;-73
2021/01/30 11:02:45;;;;;;;24.83;9.98;;;3.40;99.90;;;;;;6701548;88;20325;-73
2021/01/30 11:12:46;;;;;;;25.52;9.35;;;3.30;99.90;;;;;;6697586;88;20341;-74
2021/01/30 11:22:50;;;;;;;31.25;10.00;;;3.30;99.90;;;;;;6692722;88;20192;-73
2021/01/30 11:32:54;;;;;;;19.92;8.93;;;3.40;99.90;;;;;;6701243;88;20715;-74
2021/01/30 11:42:54;;;;;;;35.17;10.15;;;3.40;99.90;;;;;;6724413;88;21137;-75
2021/01/30 11:53:07;;;;;;;23.73;9.57;;;3.50;99.90;;;;;;6721284;88;20182;-75
2021/01/30 12:03:25;;;;;;;33.17;9.07;;;3.50;99.90;;;;;;6723461;88;20186;-74
2021/01/30 12:13:25;;;;;;;17.27;7.60;;;3.50;99.90;;;;;;6717537;88;20248;-75
2021/01/30 12:23:27;;;;;;;15.82;7.82;;;3.50;99.90;;;;;;6722269;88;20245;-73
2021/01/30 12:33:27;;;;;;;12.13;6.95;;;3.60;99.90;;;;;;6725908;88;20211;-75
2021/01/30 12:43:28;;;;;;;11.40;6.57;;;3.80;99.90;;;;;;6716622;88;20202;-74
2021/01/30 12:53:30;;;;;;;10.02;5.70;;;3.60;99.90;;;;;;6719050;88;20308;-74
2021/01/30 13:03:31;;;;;;;8.02;4.68;;;3.10;99.90;;;;;;6720144;88;20205;-74
2021/01/30 13:13:31;;;;;;;15.73;4.32;;;3.10;99.90;;;;;;6716553;88;20186;-76
2021/01/30 13:23:33;;;;;;;8.10;4.20;;;3.00;99.90;;;;;;6721763;88;20195;-76
2021/01/30 13:33:34;;;;;;;8.90;4.15;;;2.70;99.90;;;;;;6725526;88;20183;-74
2021/01/30 13:43:35;;;;;;;6.90;4.25;;;2.60;99.90;;;;;;6717751;88;20203;-75
2021/01/30 13:53:35;;;;;;;8.85;4.65;;;2.70;99.90;;;;;;6715264;88;20660;-75
2021/01/30 14:03:36;;;;;;;9.23;3.67;;;2.60;99.90;;;;;;6718534;88;20194;-74
2021/01/30 14:13:38;;;;;;;9.02;3.50;;;2.60;99.90;;;;;;6722022;88;20213;-74
2021/01/30 14:23:38;;;;;;;5.53;3.25;;;2.50;99.90;;;;;;6716479;88;20206;-74
2021/01/30 14:33:40;;;;;;;8.00;3.50;;;2.40;99.90;;;;;;6713913;88;20199;-75
2021/01/30 14:43:41;;;;;;;5.32;3.05;;;2.50;99.90;;;;;;6711582;88;20199;-74
2021/01/30 14:53:41;;;;;;;6.00;3.35;;;2.30;99.90;;;;;;6708492;88;20232;-73
2021/01/30 15:03:42;;;;;;;6.70;3.45;;;2.30;99.90;;;;;;6707328;88;20183;-73
2021/01/30 15:13:42;;;;;;;5.93;3.37;;;2.20;99.90;;;;;;6715039;88;20301;-76
2021/01/30 15:23:44;;;;;;;6.15;3.25;;;1.90;99.90;;;;;;6716361;88;20289;-73
2021/01/30 15:33:44;;;;;;;5.22;2.75;;;1.80;99.90;;;;;;6709719;88;20252;-73
2021/01/30 15:43:45;;;;;;;6.00;3.03;;;1.70;99.90;;;;;;6705282;88;20278;-74
2021/01/30 15:53:45;;;;;;;5.10;3.08;;;1.80;99.90;;;;;;6706558;88;21060;-72
2021/01/30 16:03:46;;;;;;;3.95;2.60;;;1.80;99.90;;;;;;6706776;88;20298;-72
2021/01/30 16:13:47;;;;;;;5.55;2.75;;;1.70;99.90;;;;;;6702550;88;20262;-72
2021/01/30 16:23:48;;;;;;;4.55;2.40;;;1.60;99.90;;;;;;6703381;88;20328;-73
2021/01/30 16:33:48;;;;;;;6.22;3.20;;;1.40;99.90;;;;;;6702391;88;20261;-72
2021/01/30 16:43:49;;;;;;;6.28;2.85;;;1.50;99.90;;;;;;6708356;88;20182;-75
2021/01/30 16:53:52;;;;;;;6.15;3.33;;;1.50;99.90;;;;;;6706086;88;20234;-73
2021/01/30 17:03:54;;;;;;;5.85;3.08;;;1.60;99.90;;;;;;6700324;88;20230;-72
2021/01/30 17:13:55;;;;;;;6.05;3.47;;;1.50;99.90;;;;;;6699356;88;20182;-73
2021/01/30 17:23:56;;;;;;;6.10;3.10;;;1.60;99.90;;;;;;6705968;88;20274;-74
2021/01/30 17:33:57;;;;;;;6.10;2.90;;;1.60;99.90;;;;;;6704326;88;20608;-73
2021/01/30 17:43:58;;;;;;;5.30;3.03;;;1.70;99.90;;;;;;6711736;88;20398;-75
2021/01/30 17:53:58;;;;;;;6.20;3.40;;;1.70;99.90;;;;;;6714139;88;20207;-73
2021/01/30 18:03:59;;;;;;;7.93;3.72;;;1.70;99.90;;;;;;6716942;88;21056;-75
2021/01/30 18:14:01;;;;;;;6.07;3.62;;;1.70;99.90;;;;;;6719912;88;20779;-75
2021/01/30 18:24:01;;;;;;;7.15;3.80;;;1.80;99.90;;;;;;6702618;77;20319;-74
2021/01/30 18:34:02;;;;;;;7.68;4.28;;;1.80;99.90;;;;;;6693103;88;20564;-74
2021/01/30 18:44:05;;;;;;;6.78;4.10;;;1.70;99.90;;;;;;6698454;88;20317;-73
2021/01/30 18:54:06;;;;;;;8.13;4.28;;;1.70;99.90;;;;;;6699177;88;20329;-76
2021/01/30 19:04:06;;;;;;;9.13;5.07;;;1.60;99.90;;;;;;6688149;88;20202;-73
2021/01/30 19:14:07;;;;;;;9.43;5.20;;;1.60;99.90;;;;;;6693257;88;20364;-74
2021/01/30 19:24:08;;;;;;;9.48;5.28;;;1.50;99.90;;;;;;6694230;88;20514;-73
2021/01/30 19:34:08;;;;;;;10.25;5.35;;;1.50;99.90;;;;;;6695479;88;20194;-75
2021/01/30 19:44:09;;;;;;;9.27;5.25;;;1.50;99.90;;;;;;6692366;88;20218;-75
2021/01/30 19:54:09;;;;;;;10.20;5.23;;;1.40;99.90;;;;;;6695582;88;20182;-74
2021/01/30 20:04:10;;;;;;;10.43;5.50;;;1.50;99.90;;;;;;6693569;88;20536;-74
2021/01/30 20:14:10;;;;;;;9.73;5.45;;;1.50;99.90;;;;;;6697523;88;20186;-75
2021/01/30 20:24:11;;;;;;;11.73;5.65;;;1.30;99.90;;;;;;6695555;88;20229;-74
2021/01/30 20:34:12;;;;;;;10.48;5.60;;;1.30;99.90;;;;;;6696517;88;20353;-74
2021/01/30 20:44:12;;;;;;;10.30;5.57;;;1.50;99.90;;;;;;6696818;88;20211;-74
2021/01/30 20:54:13;;;;;;;9.52;4.90;;;1.50;99.90;;;;;;6695279;88;20363;-74
2021/01/30 21:04:13;;;;;;;7.28;3.80;;;1.50;99.90;;;;;;6696087;88;20683;-74
2021/01/30 21:14:14;;;;;;;7.28;3.83;;;1.40;99.90;;;;;;6691938;88;20215;-74
2021/01/30 21:24:14;;;;;;;6.57;3.78;;;1.30;99.90;;;;;;6692967;88;20206;-74
2021/01/30 21:34:15;;;;;;;8.63;4.57;;;1.30;99.90;;;;;;6695137;88;20182;-75
2021/01/30 21:44:15;;;;;;;7.90;4.68;;;1.40;99.90;;;;;;6692508;88;20534;-74
2021/01/30 21:54:16;;;;;;;7.72;4.22;;;1.40;99.90;;;;;;6692966;88;20222;-74
2021/01/30 22:04:16;;;;;;;7.70;4.70;;;1.40;99.90;;;;;;6694471;88;20355;-74
2021/01/30 22:14:17;;;;;;;7.93;4.75;;;1.40;99.90;;;;;;6699249;88;20670;-75
2021/01/30 22:24:18;;;;;;;8.35;4.47;;;1.30;99.90;;;;;;6705781;88;20275;-74
2021/01/30 22:34:19;;;;;;;9.60;4.12;;;1.40;99.90;;;;;;6711062;88;20208;-75
2021/01/30 22:44:19;;;;;;;7.70;4.10;;;1.40;99.90;;;;;;6707851;88;20218;-74
2021/01/30 22:54:20;;;;;;;8.05;4.70;;;1.40;99.90;;;;;;6702890;88;20195;-75
2021/01/30 23:04:20;;;;;;;7.75;4.03;;;1.40;99.90;;;;;;6697466;88;20719;-75
2021/01/30 23:14:20;;;;;;;9.77;5.05;;;1.50;99.90;;;;;;6701795;88;20233;-74
2021/01/30 23:24:21;;;;;;;9.38;5.12;;;1.30;99.90;;;;;;6700361;88;21379;-75
2021/01/30 23:34:22;;;;;;;9.43;5.15;;;1.40;99.90;;;;;;6699609;88;20286;-75
2021/01/30 23:44:22;;;;;;;9.23;4.82;;;1.40;99.90;;;;;;6699044;88;20224;-76
2021/01/30 23:54:23;;;;;;;8.63;4.40;;;1.30;99.90;;;;;;6693461;88;20271;-74
